Hlavní strana
METAR-TAF:

METAR-TAF

Letiště :

Cerklje ob Krki, Slovinsko

zeměpisná šířka: 45-53-59N, zeměpisná délka: 15-30-55E, výška: 157 m

Aktuální stav počasí

Zpráva byla vytvořena před 36 minutami, v 08:30 UTC
Západojihozápadní vítr 1 kt
Teplota -2°C
Vlhkost vzduchu 93%
Tlak 1022 hPa
Viditelnost 10 km a více
Žádná oblačnost pod 1500 m, nevyskytují se cumulonimby.

METAR: LJCE 110830Z 24001KT CAVOK M02/M03 Q1022 R09/CLRD// RMK BLU

Čas: 10:06 (09:06 UTC)

Předpověď počasí

Zpráva byla vytvořena před 1 hodinou a 6 minutami, v 08:00 UTC
Předpověď platná od 11 v 09 UTC do 11 v 18 UTC
Západoseverozápadní vítr 3 kt
Viditelnost 10 km a více
Žádná oblačnost pod 1500 m, nevyskytují se cumulonimby.
Změna
od 11 v 12 UTC do 11 v 13 UTC
Východní vítr 5 kt
Dočasný
od 11 v 15 UTC do 11 v 18 UTC
Polojasno ve výšce 4500 ft

TAF: LJCE 110800Z 1109/1118 29003KT CAVOK BECMG 1112/1113 08005KT TEMPO 1115/1118 SCT045

Stav a předpovědi počasí z více než 4 000 letišť (zprávy METAR a TAF).

Červené a žluté tečky na mapě představují dostupné meteorologické stanice.

Když kurzor umístíte na tečku, zobrazí se název stanice.

Pak kliknutím zobrazíte stav a předpověď počasí.

Chcete-li změnit mapu, kliknutím na zelené tlačítko se znaménkem +mapu přiblížíte, kliknutím na zelené tlačítko se znaménkem – mapu oddálíte a kliknutím na zelené šipky přejdete na sousední mapy.


METAR-TAF: